Time;durP1;ratioP1;P1;durP2;ratioP2;P2;SDS_P1;SDS_P2;PMS_P1;PMS_P2;Temp;Humidity;BMP_temperature;BMP_pressure;BME280_temperature;BME280_humidity;BME280_pressure;Samples;Min_cycle;Max_cycle;Signal;HPM_P1;HPM_P2
2022/06/04 00:00:50;;;;;;;9.37;6.90;;;18.10;97.30;;;;;;5021748;28;20990;-81
2022/06/04 00:03:18;;;;;;;8.53;7.70;;;18.10;97.30;;;;;;5019897;28;20234;-80
2022/06/04 00:05:53;;;;;;;8.03;7.23;;;18.10;97.30;;;;;;5011555;28;20483;-80
2022/06/04 00:08:19;;;;;;;9.73;7.77;;;18.10;97.30;;;;;;5026717;28;20447;-80
2022/06/04 00:16:19;;;;;;;8.20;7.80;;;18.00;97.30;;;;;;5039501;28;20488;-80
2022/06/04 00:18:44;;;;;;;8.60;7.53;;;18.00;97.30;;;;;;5047581;28;20436;-80
2022/06/04 00:21:12;;;;;;;10.00;7.00;;;18.00;97.30;;;;;;5023620;28;20451;-80
2022/06/04 00:23:39;;;;;;;9.37;7.70;;;18.00;97.30;;;;;;5023186;28;20207;-80
2022/06/04 00:26:09;;;;;;;10.93;7.93;;;18.00;97.30;;;;;;5021937;28;20447;-80
2022/06/04 00:28:35;;;;;;;13.80;7.27;;;18.00;97.30;;;;;;5015632;28;20926;-80
2022/06/04 00:31:02;;;;;;;9.80;7.23;;;18.00;97.30;;;;;;5023397;28;20427;-80
2022/06/04 00:33:28;;;;;;;10.10;8.00;;;18.00;97.30;;;;;;5022804;28;20567;-80
2022/06/04 00:35:56;;;;;;;8.93;7.63;;;18.00;97.30;;;;;;5012428;28;20472;-80
2022/06/04 00:38:24;;;;;;;9.90;7.40;;;18.00;97.30;;;;;;5032671;28;20449;-80
2022/06/04 00:40:56;;;;;;;9.77;7.30;;;18.00;97.30;;;;;;5020556;28;20459;-80
2022/06/04 00:43:22;;;;;;;10.93;8.20;;;18.00;97.30;;;;;;5029310;28;20424;-80
2022/06/04 00:46:13;;;;;;;10.10;7.60;;;18.00;97.30;;;;;;5039459;28;20434;-80
2022/06/04 00:48:38;;;;;;;7.83;7.27;;;17.90;97.30;;;;;;5021514;28;20407;-80
2022/06/04 00:51:06;;;;;;;9.93;7.70;;;17.90;97.30;;;;;;5021509;28;20415;-81
2022/06/04 00:53:33;;;;;;;10.27;7.80;;;17.90;97.30;;;;;;5012731;28;20215;-80
2022/06/04 00:56:24;;;;;;;10.40;8.30;;;17.90;97.30;;;;;;5021421;28;20470;-79
2022/06/04 00:59:04;;;;;;;10.07;7.87;;;17.90;97.30;;;;;;5020379;28;20457;-80
2022/06/04 01:01:54;;;;;;;11.70;8.37;;;17.90;97.30;;;;;;5045917;28;20468;-80
2022/06/04 01:04:48;;;;;;;11.23;9.10;;;17.90;97.30;;;;;;5039631;28;20427;-80
2022/06/04 01:07:35;;;;;;;10.20;8.17;;;17.90;97.30;;;;;;5021880;28;20443;-80
2022/06/04 01:10:11;;;;;;;8.60;6.93;;;17.90;97.30;;;;;;5024391;28;20465;-80
2022/06/04 01:12:49;;;;;;;12.50;8.60;;;17.90;97.30;;;;;;5016159;28;20465;-81
2022/06/04 01:15:40;;;;;;;16.33;8.13;;;17.90;97.30;;;;;;5039260;28;20792;-80
2022/06/04 01:18:19;;;;;;;10.97;8.50;;;17.90;97.30;;;;;;5014513;28;20408;-80
2022/06/04 01:20:59;;;;;;;8.90;8.00;;;17.90;97.30;;;;;;5021395;28;20486;-80
2022/06/04 01:24:02;;;;;;;10.07;8.67;;;17.80;97.30;;;;;;5026002;28;20979;-82
2022/06/04 01:26:49;;;;;;;12.40;8.90;;;17.80;97.30;;;;;;5022278;28;20848;-82
2022/06/04 01:29:32;;;;;;;11.93;9.10;;;17.80;97.30;;;;;;5018062;28;20419;-82
2022/06/04 01:32:14;;;;;;;10.60;8.70;;;17.80;97.30;;;;;;5021857;28;20446;-81
2022/06/04 01:34:52;;;;;;;8.70;7.80;;;17.80;97.30;;;;;;5024977;28;20948;-81
2022/06/04 01:37:20;;;;;;;10.63;8.67;;;17.70;97.30;;;;;;5015348;28;20442;-81
2022/06/04 01:42:38;;;;;;;10.50;8.53;;;17.70;97.30;;;;;;5040296;28;21134;-82
2022/06/04 01:45:08;;;;;;;10.57;8.77;;;17.70;97.30;;;;;;5023386;28;20418;-81
2022/06/04 01:47:35;;;;;;;12.13;9.00;;;17.70;97.30;;;;;;5025118;28;20475;-82
2022/06/04 01:50:03;;;;;;;14.23;8.73;;;17.70;97.30;;;;;;5022529;28;20408;-81
2022/06/04 01:52:34;;;;;;;12.10;8.70;;;17.70;97.30;;;;;;5022607;28;20416;-82
2022/06/04 01:55:06;;;;;;;11.57;8.33;;;17.60;97.30;;;;;;5021769;28;20474;-82
2022/06/04 01:57:34;;;;;;;9.60;8.40;;;17.60;97.30;;;;;;5020176;28;20427;-81
2022/06/04 02:00:12;;;;;;;11.83;8.80;;;17.50;97.30;;;;;;5020227;28;21121;-81
2022/06/04 02:02:44;;;;;;;9.03;7.60;;;17.50;97.30;;;;;;5020896;28;21007;-81
2022/06/04 02:05:19;;;;;;;12.30;9.27;;;17.50;97.30;;;;;;5038485;28;20628;-81
2022/06/04 02:07:49;;;;;;;12.33;8.20;;;17.50;97.30;;;;;;5019836;28;20438;-81
2022/06/04 02:10:32;;;;;;;11.40;9.10;;;17.50;97.30;;;;;;5020239;28;20408;-81
2022/06/04 02:13:01;;;;;;;13.57;9.30;;;17.40;97.30;;;;;;5020555;28;20484;-81
2022/06/04 02:15:56;;;;;;;10.93;8.63;;;17.40;97.30;;;;;;5020925;28;20435;-81
2022/06/04 02:18:21;;;;;;;12.07;9.43;;;17.40;97.30;;;;;;5019935;28;20909;-81
2022/06/04 02:20:47;;;;;;;11.80;9.80;;;17.40;97.30;;;;;;5020033;28;20489;-81
2022/06/04 02:23:12;;;;;;;12.83;8.70;;;17.40;97.30;;;;;;5019882;28;20184;-82
2022/06/04 02:25:38;;;;;;;13.57;10.60;;;17.40;97.30;;;;;;5023227;28;20204;-81
2022/06/04 02:28:06;;;;;;;12.97;9.90;;;17.40;97.30;;;;;;5024517;28;20187;-81
2022/06/04 02:30:52;;;;;;;13.13;9.37;;;17.40;97.30;;;;;;5024656;28;20455;-81
2022/06/04 02:33:32;;;;;;;16.07;9.70;;;17.40;97.30;;;;;;5023264;28;20949;-82
2022/06/04 02:36:19;;;;;;;14.13;9.67;;;17.40;97.30;;;;;;5024914;28;21020;-82
2022/06/04 02:39:00;;;;;;;12.00;9.40;;;17.40;97.30;;;;;;4991984;28;20428;-82
2022/06/04 02:41:53;;;;;;;12.60;9.40;;;17.40;97.30;;;;;;5038548;28;20550;-82
2022/06/04 02:44:33;;;;;;;11.80;9.00;;;17.40;97.30;;;;;;5024248;28;20746;-82
2022/06/04 02:47:24;;;;;;;11.90;9.90;;;17.40;97.30;;;;;;5038368;28;20523;-82
2022/06/04 02:55:34;;;;;;;13.67;10.27;;;17.40;97.30;;;;;;5039810;28;20652;-82
2022/06/04 02:58:05;;;;;;;12.83;10.77;;;17.30;97.30;;;;;;5023773;28;20477;-82
2022/06/04 03:00:37;;;;;;;14.40;9.63;;;17.30;97.30;;;;;;5024818;28;20455;-82
2022/06/04 03:03:04;;;;;;;11.40;8.93;;;17.30;97.30;;;;;;5024506;28;20966;-82
2022/06/04 03:05:29;;;;;;;13.03;10.00;;;17.30;97.30;;;;;;5023119;28;20423;-82
2022/06/04 03:08:00;;;;;;;17.13;10.40;;;17.30;97.30;;;;;;5023979;28;20415;-82
2022/06/04 03:10:31;;;;;;;15.63;10.30;;;17.30;97.30;;;;;;5022748;28;20187;-82
2022/06/04 03:12:57;;;;;;;13.40;9.80;;;17.30;97.30;;;;;;5019036;28;20411;-82
2022/06/04 03:15:23;;;;;;;18.10;9.80;;;17.30;97.30;;;;;;5019081;28;20777;-81
2022/06/04 03:17:49;;;;;;;31.17;11.80;;;17.30;97.30;;;;;;5019463;28;20296;-81
2022/06/04 03:20:18;;;;;;;12.27;10.07;;;17.30;97.30;;;;;;5019084;28;20436;-82
2022/06/04 03:22:44;;;;;;;14.50;9.97;;;17.30;97.30;;;;;;5018701;28;20423;-82
2022/06/04 03:25:10;;;;;;;12.20;9.87;;;17.20;97.30;;;;;;5019588;28;20800;-82
2022/06/04 03:27:36;;;;;;;14.50;10.40;;;17.20;97.30;;;;;;5018331;28;20189;-82
2022/06/04 03:30:02;;;;;;;15.90;11.07;;;17.20;97.30;;;;;;5019682;28;20464;-82
2022/06/04 03:32:28;;;;;;;14.87;10.17;;;17.10;97.30;;;;;;5018821;28;20231;-82
2022/06/04 03:34:53;;;;;;;15.83;10.50;;;17.10;97.30;;;;;;5035929;28;20408;-82
2022/06/04 03:37:19;;;;;;;13.43;9.43;;;17.10;97.30;;;;;;5023696;28;20584;-82
2022/06/04 03:39:44;;;;;;;12.50;10.23;;;17.00;97.30;;;;;;5035125;28;20184;-82
2022/06/04 03:42:10;;;;;;;12.03;10.30;;;17.00;97.30;;;;;;5034828;28;20212;-82
2022/06/04 03:44:35;;;;;;;12.80;10.43;;;17.00;97.30;;;;;;5037591;28;20430;-82
2022/06/04 03:47:01;;;;;;;13.90;10.60;;;17.00;97.30;;;;;;5038150;28;20682;-82
2022/06/04 03:49:27;;;;;;;15.60;10.47;;;17.00;97.30;;;;;;5039263;28;20249;-81
2022/06/04 03:51:52;;;;;;;12.27;9.77;;;17.00;97.30;;;;;;5038330;28;20193;-82
2022/06/04 03:54:52;;;;;;;11.63;9.80;;;17.00;97.30;;;;;;5039223;28;20232;-82
2022/06/04 03:59:52;;;;;;;15.50;10.57;;;17.00;97.30;;;;;;5040577;28;20468;-82
2022/06/04 04:02:18;;;;;;;12.73;10.53;;;16.90;97.30;;;;;;5038684;28;20458;-82
2022/06/04 04:04:43;;;;;;;13.10;10.23;;;16.90;97.30;;;;;;5038356;28;20433;-82
2022/06/04 04:07:09;;;;;;;15.07;10.90;;;16.90;97.30;;;;;;5038351;28;20203;-82
2022/06/04 04:09:35;;;;;;;14.27;9.70;;;16.90;97.30;;;;;;5038627;28;20272;-82
2022/06/04 04:12:01;;;;;;;13.53;9.50;;;16.90;97.30;;;;;;5037870;28;20450;-82
2022/06/04 04:14:27;;;;;;;14.93;9.80;;;16.90;97.30;;;;;;5038315;28;20177;-82
2022/06/04 04:16:52;;;;;;;13.33;9.60;;;16.90;97.30;;;;;;5039383;28;20220;-82
2022/06/04 04:19:18;;;;;;;10.60;9.20;;;16.90;97.30;;;;;;5038660;28;20423;-82
2022/06/04 04:21:44;;;;;;;11.93;9.70;;;16.90;97.30;;;;;;5038165;28;20214;-82
2022/06/04 04:24:09;;;;;;;14.17;10.77;;;16.90;97.30;;;;;;5039800;28;20654;-82
2022/06/04 04:26:35;;;;;;;13.50;9.93;;;16.90;97.30;;;;;;5038125;28;20200;-82
2022/06/04 04:29:00;;;;;;;13.13;10.60;;;16.90;97.30;;;;;;5037636;28;20169;-82
2022/06/04 04:31:26;;;;;;;14.70;11.00;;;16.80;97.30;;;;;;5037904;28;20182;-82
2022/06/04 04:33:52;;;;;;;12.13;10.03;;;16.80;97.30;;;;;;5037980;28;20207;-82
2022/06/04 04:36:17;;;;;;;11.90;9.93;;;16.80;97.30;;;;;;5039344;28;20198;-81
2022/06/04 04:38:43;;;;;;;12.20;10.30;;;16.80;97.30;;;;;;5020850;28;20697;-82
2022/06/04 04:41:11;;;;;;;14.30;10.33;;;16.80;97.30;;;;;;5021013;28;20681;-82
2022/06/04 04:43:37;;;;;;;14.33;10.50;;;16.80;97.30;;;;;;5020382;28;20257;-82
2022/06/04 04:46:05;;;;;;;12.33;9.73;;;16.80;97.30;;;;;;5019859;28;20470;-82
2022/06/04 04:48:31;;;;;;;13.33;10.07;;;16.80;97.30;;;;;;5019834;28;20705;-82
2022/06/04 04:50:56;;;;;;;13.57;9.63;;;16.80;97.30;;;;;;5019702;28;20423;-82
2022/06/04 04:53:23;;;;;;;18.23;10.47;;;16.80;97.30;;;;;;5020514;28;20231;-82
2022/06/04 04:55:49;;;;;;;10.87;9.40;;;16.80;97.30;;;;;;5019837;28;20705;-82
2022/06/04 04:58:15;;;;;;;13.40;9.83;;;16.80;97.30;;;;;;5020445;28;20462;-82
2022/06/04 05:00:42;;;;;;;10.13;9.20;;;16.80;97.30;;;;;;5020265;28;20783;-82
2022/06/04 05:03:08;;;;;;;11.83;8.67;;;16.80;97.30;;;;;;5020296;28;20315;-82
2022/06/04 05:05:34;;;;;;;11.50;8.00;;;16.70;97.30;;;;;;5020515;28;20487;-83
2022/06/04 05:07:59;;;;;;;11.33;9.40;;;16.70;97.30;;;;;;5020550;28;20181;-83
2022/06/04 05:10:25;;;;;;;14.63;9.93;;;16.70;97.30;;;;;;5020367;28;20180;-82
2022/06/04 05:12:52;;;;;;;9.93;9.10;;;16.70;97.30;;;;;;5019743;28;20177;-82
2022/06/04 05:15:19;;;;;;;13.10;11.03;;;16.60;97.30;;;;;;5020591;28;20208;-82
2022/06/04 05:17:44;;;;;;;15.30;10.93;;;16.60;97.30;;;;;;5019709;28;20454;-82
2022/06/04 05:20:10;;;;;;;13.23;10.23;;;16.60;97.30;;;;;;5019274;28;20415;-82
2022/06/04 05:22:36;;;;;;;14.33;9.87;;;16.60;97.30;;;;;;5019642;28;20226;-82
2022/06/04 05:25:03;;;;;;;14.90;10.40;;;16.60;97.30;;;;;;5019109;28;20411;-82
2022/06/04 05:27:29;;;;;;;11.93;10.13;;;16.60;97.30;;;;;;5019103;28;20504;-82
2022/06/04 05:29:55;;;;;;;14.20;9.90;;;16.60;97.30;;;;;;5037030;28;20461;-82
2022/06/04 05:32:20;;;;;;;12.87;9.40;;;16.60;97.30;;;;;;5018689;28;20185;-82
2022/06/04 05:34:46;;;;;;;11.03;8.70;;;16.50;97.30;;;;;;5018616;28;20181;-82
2022/06/04 05:37:11;;;;;;;14.90;10.07;;;16.50;97.30;;;;;;5022391;28;20202;-82
2022/06/04 05:39:37;;;;;;;10.00;8.73;;;16.50;97.30;;;;;;5035399;28;20180;-82
2022/06/04 05:42:04;;;;;;;11.07;9.07;;;16.50;97.30;;;;;;5035481;28;20209;-82
2022/06/04 05:44:30;;;;;;;9.20;8.33;;;16.60;97.30;;;;;;5034877;28;20180;-82
2022/06/04 05:46:57;;;;;;;11.37;8.53;;;16.50;97.30;;;;;;5027820;28;20431;-82
2022/06/04 05:49:23;;;;;;;9.83;8.57;;;16.50;97.30;;;;;;5028705;28;20177;-82
2022/06/04 05:51:49;;;;;;;12.17;9.67;;;16.60;97.30;;;;;;5029209;28;20924;-82
2022/06/04 05:54:15;;;;;;;15.43;8.97;;;16.60;97.30;;;;;;5042047;28;20475;-82
2022/06/04 05:56:44;;;;;;;10.33;8.90;;;16.60;97.30;;;;;;5031716;28;20446;-82
2022/06/04 05:59:13;;;;;;;10.27;8.57;;;16.60;97.30;;;;;;5024964;28;20183;-82
2022/06/04 06:01:40;;;;;;;9.77;7.77;;;16.70;97.30;;;;;;5031469;28;20886;-82
2022/06/04 06:04:07;;;;;;;9.47;7.37;;;16.70;97.30;;;;;;5029783;28;20422;-81
2022/06/04 06:06:35;;;;;;;11.47;8.70;;;16.70;97.30;;;;;;5030979;28;20438;-81
2022/06/04 06:09:05;;;;;;;8.43;7.37;;;16.70;97.30;;;;;;5032331;28;21007;-82
2022/06/04 06:11:31;;;;;;;11.00;9.30;;;16.70;97.30;;;;;;5031007;28;20933;-82
2022/06/04 06:13:58;;;;;;;11.67;8.63;;;16.80;97.30;;;;;;5043116;28;20623;-81
2022/06/04 06:16:27;;;;;;;11.10;8.40;;;16.80;97.30;;;;;;5032825;28;20431;-82
2022/06/04 06:18:54;;;;;;;9.87;7.97;;;16.90;97.30;;;;;;5032359;28;20423;-81
2022/06/04 06:21:22;;;;;;;9.10;8.07;;;16.90;97.30;;;;;;5032467;28;20972;-82
2022/06/04 06:23:49;;;;;;;11.53;8.70;;;16.90;97.30;;;;;;5029262;28;20453;-81
2022/06/04 06:26:18;;;;;;;8.30;7.57;;;17.00;97.30;;;;;;5031625;28;20466;-81
2022/06/04 06:28:45;;;;;;;11.13;8.10;;;17.00;97.30;;;;;;5032525;28;20445;-81
2022/06/04 06:31:14;;;;;;;11.60;8.87;;;17.00;97.30;;;;;;5031801;28;20437;-81
2022/06/04 06:33:39;;;;;;;10.20;8.60;;;17.00;97.30;;;;;;5033749;28;20432;-82
2022/06/04 06:36:08;;;;;;;11.23;8.17;;;17.10;97.30;;;;;;5033815;28;20447;-81
2022/06/04 06:38:34;;;;;;;14.97;8.80;;;17.10;97.30;;;;;;5029727;28;20176;-82
2022/06/04 06:41:00;;;;;;;12.27;7.80;;;17.20;97.30;;;;;;5031238;28;20462;-82
2022/06/04 06:43:47;;;;;;;7.90;7.40;;;17.20;97.30;;;;;;5031096;28;20414;-81
2022/06/04 06:46:16;;;;;;;11.70;8.53;;;17.20;97.30;;;;;;5027707;28;20466;-82
2022/06/04 06:48:44;;;;;;;11.10;8.90;;;17.30;97.30;;;;;;5029907;28;20425;-82
2022/06/04 06:51:38;;;;;;;10.13;8.40;;;17.30;97.30;;;;;;5028381;28;20435;-80
2022/06/04 06:54:03;;;;;;;9.90;8.80;;;17.40;97.30;;;;;;5025169;28;20471;-80
2022/06/04 06:56:33;;;;;;;13.20;9.47;;;17.30;97.30;;;;;;5028571;28;20438;-81
2022/06/04 06:59:00;;;;;;;10.00;8.20;;;17.40;97.30;;;;;;5029489;28;20267;-81
2022/06/04 07:01:27;;;;;;;10.40;8.27;;;17.40;97.30;;;;;;5028519;28;20459;-81
2022/06/04 07:03:54;;;;;;;9.53;7.37;;;17.40;97.30;;;;;;5028799;28;20419;-83
2022/06/04 07:06:40;;;;;;;13.27;7.80;;;17.40;97.30;;;;;;5038555;28;20473;-80
2022/06/04 07:09:10;;;;;;;9.47;6.90;;;17.40;97.30;;;;;;5027524;28;20419;-81
2022/06/04 07:11:36;;;;;;;8.60;7.53;;;17.40;97.30;;;;;;5027856;28;20846;-80
2022/06/04 07:14:02;;;;;;;9.87;7.73;;;17.40;97.30;;;;;;5029535;28;20453;-80
2022/06/04 07:16:27;;;;;;;14.33;8.37;;;17.40;97.30;;;;;;5027946;28;20376;-81
2022/06/04 07:18:53;;;;;;;10.93;8.70;;;17.40;97.30;;;;;;5028439;28;20188;-81
2022/06/04 07:21:19;;;;;;;13.07;8.83;;;17.50;97.30;;;;;;5034821;28;20208;-80
2022/06/04 07:23:45;;;;;;;14.30;8.37;;;17.50;97.30;;;;;;5027516;28;20445;-81
2022/06/04 07:26:12;;;;;;;13.23;8.40;;;17.50;97.30;;;;;;5023297;28;20192;-81
2022/06/04 07:28:38;;;;;;;11.87;8.10;;;17.50;97.30;;;;;;5024941;28;20446;-81
2022/06/04 07:31:09;;;;;;;10.30;8.00;;;17.60;97.30;;;;;;5032245;28;20423;-81
2022/06/04 07:33:34;;;;;;;12.40;8.13;;;17.60;97.30;;;;;;5020340;28;20455;-81
2022/06/04 07:36:00;;;;;;;10.03;7.50;;;17.60;97.30;;;;;;5019554;28;20451;-80
2022/06/04 07:38:26;;;;;;;11.33;9.07;;;17.70;97.30;;;;;;5020828;28;20176;-82
2022/06/04 07:40:52;;;;;;;11.23;7.87;;;17.70;97.30;;;;;;5020040;28;20530;-83
2022/06/04 07:43:17;;;;;;;14.80;9.53;;;17.70;97.30;;;;;;5018971;28;20180;-83
2022/06/04 07:45:43;;;;;;;10.90;8.20;;;17.80;97.30;;;;;;5018616;28;20204;-82
2022/06/04 07:48:09;;;;;;;8.20;7.30;;;17.80;97.30;;;;;;5020285;28;20183;-82
2022/06/04 07:50:37;;;;;;;9.80;7.43;;;17.80;97.30;;;;;;5038611;28;20665;-82
2022/06/04 07:53:03;;;;;;;9.83;7.23;;;17.80;97.30;;;;;;5028523;28;20422;-83
2022/06/04 07:55:29;;;;;;;11.10;7.93;;;17.80;97.30;;;;;;5026190;28;20415;-82
2022/06/04 07:57:56;;;;;;;10.83;7.90;;;17.80;97.30;;;;;;5024204;28;20192;-83
2022/06/04 08:00:25;;;;;;;9.60;7.60;;;17.90;97.30;;;;;;5024481;28;20477;-83
2022/06/04 08:02:51;;;;;;;9.50;7.80;;;17.90;97.30;;;;;;5028597;28;20799;-83
2022/06/04 08:05:18;;;;;;;11.80;8.00;;;17.90;97.30;;;;;;5027428;28;20933;-82
2022/06/04 08:07:44;;;;;;;12.50;8.27;;;18.00;97.30;;;;;;5022357;28;20455;-83
2022/06/04 08:10:12;;;;;;;10.90;8.27;;;18.00;97.30;;;;;;5033792;28;20434;-82
2022/06/04 08:12:43;;;;;;;10.20;7.73;;;18.00;97.30;;;;;;5030757;28;20427;-82
2022/06/04 08:15:09;;;;;;;11.13;8.73;;;18.00;97.30;;;;;;5003669;28;21034;-82
2022/06/04 08:17:35;;;;;;;10.43;7.60;;;18.10;97.30;;;;;;5022201;28;20944;-83
2022/06/04 08:20:01;;;;;;;9.90;8.00;;;18.10;97.30;;;;;;5034153;28;20565;-84
2022/06/04 08:22:26;;;;;;;12.03;8.30;;;18.10;97.30;;;;;;5032434;28;20487;-83
2022/06/04 08:24:52;;;;;;;9.93;7.83;;;18.20;97.30;;;;;;5015202;28;20208;-83
2022/06/04 08:27:20;;;;;;;10.63;8.60;;;18.20;97.30;;;;;;5016272;28;20566;-83
2022/06/04 08:29:50;;;;;;;14.10;8.50;;;18.30;97.30;;;;;;5015170;28;20181;-83
2022/06/04 08:32:23;;;;;;;11.00;8.13;;;18.40;97.30;;;;;;5019416;28;20424;-83
2022/06/04 08:34:52;;;;;;;12.27;8.53;;;18.50;97.30;;;;;;5019005;28;20794;-83
2022/06/04 08:37:20;;;;;;;15.00;8.50;;;18.70;97.30;;;;;;5019036;28;20450;-83
2022/06/04 08:39:46;;;;;;;9.70;8.03;;;18.70;97.30;;;;;;5019442;28;20423;-83
2022/06/04 08:42:11;;;;;;;14.27;8.87;;;18.80;97.30;;;;;;5020721;28;20466;-82
2022/06/04 08:44:51;;;;;;;8.67;7.10;;;18.80;97.30;;;;;;5024501;28;20173;-81
2022/06/04 08:47:25;;;;;;;13.37;8.70;;;18.80;97.30;;;;;;5023904;28;20255;-81
2022/06/04 08:50:03;;;;;;;11.30;8.57;;;18.90;97.30;;;;;;5024426;28;20501;-81
2022/06/04 08:52:40;;;;;;;11.87;8.53;;;18.90;97.30;;;;;;5023860;28;21039;-82
2022/06/04 08:58:21;;;;;;;12.60;8.50;;;19.00;97.30;;;;;;5054071;28;20781;-82
2022/06/04 09:01:11;;;;;;;10.40;8.07;;;19.10;97.30;;;;;;5023171;28;20459;-82
2022/06/04 09:03:43;;;;;;;11.00;8.03;;;19.30;97.30;;;;;;5023619;28;20510;-82
2022/06/04 09:06:23;;;;;;;10.20;8.50;;;19.40;97.30;;;;;;5041508;28;20445;-82
2022/06/04 09:09:20;;;;;;;13.23;9.60;;;19.60;97.30;;;;;;5024979;28;20418;-82
2022/06/04 09:12:10;;;;;;;10.10;8.17;;;19.70;97.30;;;;;;5022279;28;20434;-82
2022/06/04 09:15:02;;;;;;;11.40;8.80;;;19.80;97.30;;;;;;5023073;28;20411;-81
2022/06/04 09:17:52;;;;;;;9.37;8.20;;;19.80;97.30;;;;;;5022702;28;20435;-81
2022/06/04 09:20:45;;;;;;;9.23;7.70;;;19.80;97.30;;;;;;5022110;28;20794;-82
2022/06/04 09:23:39;;;;;;;12.43;7.63;;;19.90;97.30;;;;;;4994464;28;20966;-82
2022/06/04 09:26:13;;;;;;;11.67;8.07;;;20.00;97.30;;;;;;5001514;28;20495;-82
2022/06/04 09:28:46;;;;;;;9.80;7.80;;;20.00;97.30;;;;;;5002986;28;20522;-82
2022/06/04 09:31:34;;;;;;;10.90;8.77;;;20.10;97.30;;;;;;5016767;28;20435;-82
2022/06/04 09:34:13;;;;;;;13.40;8.17;;;20.20;97.30;;;;;;5023714;28;20940;-83
2022/06/04 09:36:42;;;;;;;11.23;8.73;;;20.20;97.30;;;;;;5019448;28;20526;-82
2022/06/04 09:39:26;;;;;;;9.13;7.20;;;20.30;97.30;;;;;;5035425;28;20513;-82
2022/06/04 09:41:56;;;;;;;10.87;7.30;;;20.40;97.30;;;;;;5040441;28;20458;-82
2022/06/04 09:44:23;;;;;;;14.43;7.13;;;20.40;97.30;;;;;;5039858;28;20434;-82
2022/06/04 09:47:00;;;;;;;9.93;8.17;;;20.50;97.30;;;;;;5039326;28;20435;-82
2022/06/04 09:49:42;;;;;;;9.87;8.80;;;20.50;97.30;;;;;;5039308;28;20410;-82
2022/06/04 09:52:40;;;;;;;8.73;7.90;;;20.60;97.00;;;;;;5039286;28;20415;-82
2022/06/04 09:55:21;;;;;;;11.20;7.57;;;20.70;96.70;;;;;;5038139;28;20485;-83
2022/06/04 09:58:16;;;;;;;8.00;7.03;;;20.80;96.80;;;;;;5032899;28;20439;-83
2022/06/04 10:01:03;;;;;;;9.17;7.70;;;20.90;96.60;;;;;;5031419;28;20494;-82
2022/06/04 10:03:32;;;;;;;8.93;7.13;;;21.00;97.10;;;;;;5031551;28;20510;-83
2022/06/04 10:06:00;;;;;;;10.33;7.60;;;21.10;96.80;;;;;;5030624;28;20450;-84
2022/06/04 10:08:29;;;;;;;10.97;7.37;;;21.20;97.20;;;;;;5030343;28;20415;-84
2022/06/04 10:11:04;;;;;;;10.00;7.13;;;21.40;97.10;;;;;;5030768;28;20493;-84
2022/06/04 10:13:48;;;;;;;7.40;6.57;;;21.50;97.10;;;;;;5030618;28;20977;-83
2022/06/04 10:16:35;;;;;;;6.63;6.23;;;21.70;96.50;;;;;;5030297;28;20461;-83
2022/06/04 10:19:04;;;;;;;9.53;7.03;;;21.70;95.00;;;;;;5031345;28;20423;-83
2022/06/04 10:21:37;;;;;;;10.50;6.70;;;21.80;94.20;;;;;;5031549;28;20624;-83
2022/06/04 10:24:24;;;;;;;7.00;6.33;;;21.90;93.50;;;;;;5031119;28;20430;-83
2022/06/04 10:27:16;;;;;;;8.23;6.20;;;21.90;93.80;;;;;;5030897;28;20444;-83
2022/06/04 10:29:47;;;;;;;8.83;6.93;;;22.00;94.00;;;;;;5031506;28;20572;-84
2022/06/04 10:32:25;;;;;;;11.27;7.50;;;22.00;95.10;;;;;;5030633;28;20465;-83
2022/06/04 10:35:08;;;;;;;7.73;7.00;;;22.10;95.20;;;;;;5030653;28;20415;-83
2022/06/04 10:38:03;;;;;;;9.60;6.90;;;22.20;94.80;;;;;;5029891;28;21030;-84
2022/06/04 10:40:34;;;;;;;9.00;7.67;;;22.30;93.60;;;;;;5030196;28;20936;-84
2022/06/04 10:43:08;;;;;;;7.10;6.57;;;22.40;92.90;;;;;;5030482;28;20422;-84
2022/06/04 10:46:17;;;;;;;11.90;7.40;;;22.40;93.30;;;;;;5029629;28;20410;-85
2022/06/04 10:49:10;;;;;;;9.40;7.50;;;22.50;93.40;;;;;;5016346;28;20454;-85
2022/06/04 10:51:48;;;;;;;9.57;6.27;;;22.60;93.00;;;;;;5015534;28;20419;-85
2022/06/04 10:54:34;;;;;;;9.50;7.00;;;22.70;92.70;;;;;;5010033;28;20526;-85
2022/06/04 10:57:20;;;;;;;9.83;7.10;;;22.80;93.20;;;;;;5010121;28;21003;-85
2022/06/04 10:59:56;;;;;;;7.03;6.37;;;22.90;92.50;;;;;;5012193;28;20439;-85
2022/06/04 11:02:43;;;;;;;9.60;6.60;;;23.00;92.80;;;;;;5027011;28;20448;-85
2022/06/04 11:05:21;;;;;;;8.90;7.27;;;23.00;90.60;;;;;;5009977;28;20819;-84
2022/06/04 11:07:54;;;;;;;8.50;7.00;;;23.00;90.90;;;;;;5023676;28;20526;-85
2022/06/04 11:10:39;;;;;;;8.60;6.97;;;23.00;91.00;;;;;;5028067;28;20616;-85
2022/06/04 11:13:22;;;;;;;7.40;6.53;;;23.00;91.20;;;;;;5029164;28;20419;-84
2022/06/04 11:16:10;;;;;;;9.90;8.10;;;22.90;90.50;;;;;;5016656;28;20424;-85
2022/06/04 11:18:57;;;;;;;11.00;7.13;;;22.80;89.90;;;;;;5010296;28;20430;-84
2022/06/04 11:21:51;;;;;;;7.83;7.17;;;22.80;90.40;;;;;;5009631;28;20540;-85
2022/06/04 11:24:26;;;;;;;9.17;6.90;;;22.70;90.90;;;;;;5026069;28;20464;-85
2022/06/04 11:26:58;;;;;;;6.50;6.10;;;22.70;90.90;;;;;;5029384;28;20952;-85
2022/06/04 11:29:24;;;;;;;10.60;7.17;;;22.70;91.00;;;;;;5019692;28;20459;-85
2022/06/04 11:32:24;;;;;;;10.83;7.13;;;22.70;90.30;;;;;;5015458;28;20446;-84
2022/06/04 11:35:17;;;;;;;9.63;7.47;;;22.70;90.70;;;;;;5014993;28;20542;-84
2022/06/04 11:38:04;;;;;;;8.73;7.77;;;22.70;92.00;;;;;;5012356;28;20484;-84
2022/06/04 11:40:39;;;;;;;9.93;7.23;;;22.70;92.20;;;;;;5009433;28;20789;-84
2022/06/04 11:43:16;;;;;;;12.13;7.60;;;22.80;92.20;;;;;;5011651;28;20416;-84
2022/06/04 11:45:48;;;;;;;8.70;7.63;;;22.80;92.20;;;;;;5010967;28;20964;-85
2022/06/04 11:48:42;;;;;;;10.70;7.57;;;22.90;93.00;;;;;;5011280;28;20431;-84
2022/06/04 11:51:43;;;;;;;10.10;8.40;;;23.00;93.90;;;;;;5009358;28;20486;-85
2022/06/04 11:54:27;;;;;;;10.43;8.93;;;23.10;94.50;;;;;;5013091;28;20566;-84
2022/06/04 11:57:02;;;;;;;14.70;8.10;;;23.10;94.50;;;;;;5029213;28;20798;-84
2022/06/04 11:59:40;;;;;;;9.20;7.50;;;23.10;94.30;;;;;;5028605;28;20419;-84
2022/06/04 12:02:13;;;;;;;8.30;7.40;;;23.10;93.90;;;;;;5029206;28;20470;-85
2022/06/04 12:05:10;;;;;;;11.60;7.40;;;23.10;92.70;;;;;;5029271;28;20415;-84
2022/06/04 12:07:40;;;;;;;8.37;7.07;;;23.00;93.20;;;;;;5033126;28;20991;-84
2022/06/04 12:10:18;;;;;;;9.83;8.10;;;23.10;93.10;;;;;;5032806;28;20407;-84
2022/06/04 12:12:50;;;;;;;9.90;7.30;;;23.10;93.70;;;;;;5033222;28;20829;-84
2022/06/04 12:15:40;;;;;;;8.67;7.20;;;23.20;93.80;;;;;;5032538;28;20529;-84
2022/06/04 12:58:56;;;;;;;6.70;6.10;;;24.80;87.50;;;;;;5015455;28;20489;-85
2022/06/04 13:01:32;;;;;;;7.57;6.00;;;25.00;88.30;;;;;;5014693;28;20451;-85
2022/06/04 13:04:11;;;;;;;6.00;5.70;;;25.10;86.70;;;;;;5016587;28;20496;-87
2022/06/04 13:06:39;;;;;;;7.10;5.43;;;25.10;84.00;;;;;;5039223;28;20434;-85
2022/06/04 13:09:12;;;;;;;6.10;5.17;;;25.10;85.60;;;;;;5028863;28;20422;-85
2022/06/04 13:11:52;;;;;;;7.10;6.00;;;25.30;87.20;;;;;;5019049;28;20552;-84
2022/06/04 13:14:26;;;;;;;6.63;5.07;;;25.50;86.10;;;;;;5020687;28;20564;-84
2022/06/04 13:16:56;;;;;;;11.13;4.97;;;25.70;84.80;;;;;;5020185;28;20434;-84
2022/06/04 13:19:32;;;;;;;6.13;4.97;;;25.80;84.00;;;;;;5020219;28;20960;-84
2022/06/04 13:21:59;;;;;;;6.90;4.93;;;25.90;83.90;;;;;;5016069;28;20473;-84
2022/06/04 13:24:27;;;;;;;4.60;4.30;;;26.00;83.10;;;;;;5016647;28;20419;-84
2022/06/04 13:27:06;;;;;;;6.93;5.37;;;25.90;82.20;;;;;;5028136;28;20522;-84
2022/06/04 13:29:35;;;;;;;9.70;5.60;;;25.70;82.20;;;;;;5034925;28;20942;-84
2022/06/04 13:32:20;;;;;;;5.80;4.83;;;25.50;82.00;;;;;;5012391;28;20418;-85
2022/06/04 13:34:46;;;;;;;5.23;4.93;;;25.40;82.30;;;;;;5013016;28;20515;-85
2022/06/04 13:37:19;;;;;;;11.13;5.17;;;25.20;82.70;;;;;;5013317;28;20782;-84
2022/06/04 13:39:49;;;;;;;6.40;5.00;;;25.10;83.10;;;;;;5014955;28;20505;-84
2022/06/04 13:42:35;;;;;;;6.37;4.70;;;25.10;82.80;;;;;;5015375;28;20465;-84
2022/06/04 13:45:25;;;;;;;8.70;5.43;;;25.00;82.70;;;;;;5015162;28;20416;-84
2022/06/04 13:47:54;;;;;;;5.60;4.53;;;25.00;82.90;;;;;;5006730;28;20443;-84
2022/06/04 13:50:22;;;;;;;4.77;4.53;;;25.10;83.10;;;;;;5015460;28;20469;-84
2022/06/04 13:52:58;;;;;;;7.10;5.00;;;25.40;82.80;;;;;;5014564;28;20419;-85
2022/06/04 13:55:36;;;;;;;7.47;5.10;;;25.60;84.00;;;;;;5014791;28;20419;-85
2022/06/04 13:58:14;;;;;;;7.20;4.40;;;26.00;82.70;;;;;;5014591;28;20415;-84
2022/06/04 14:00:40;;;;;;;7.10;4.83;;;26.20;82.40;;;;;;5014076;28;20422;-85
2022/06/04 14:03:20;;;;;;;6.53;5.30;;;26.40;81.60;;;;;;5014265;28;20940;-86
2022/06/04 14:05:48;;;;;;;6.13;5.40;;;26.50;81.00;;;;;;5014765;28;20411;-84
2022/06/04 14:08:22;;;;;;;5.20;4.87;;;26.50;80.90;;;;;;5031953;28;20410;-85